sensor_id;sensor_type;location;lat;lon;timestamp;P1;durP1;ratioP1;P2;durP2;ratioP2
4867;SDS011;2448;48.086;10.862;2023-09-30T00:02:20;13.73;;;5.67;;
4867;SDS011;2448;48.086;10.862;2023-09-30T00:04:45;14.53;;;4.67;;
4867;SDS011;2448;48.086;10.862;2023-09-30T00:07:11;16.50;;;6.23;;
4867;SDS011;2448;48.086;10.862;2023-09-30T00:09:36;16.50;;;6.40;;
4867;SDS011;2448;48.086;10.862;2023-09-30T00:12:02;12.80;;;4.70;;
4867;SDS011;2448;48.086;10.862;2023-09-30T00:14:28;14.80;;;6.33;;
4867;SDS011;2448;48.086;10.862;2023-09-30T00:16:54;20.27;;;5.40;;
4867;SDS011;2448;48.086;10.862;2023-09-30T00:19:19;21.53;;;5.43;;
4867;SDS011;2448;48.086;10.862;2023-09-30T00:21:44;14.30;;;4.70;;
4867;SDS011;2448;48.086;10.862;2023-09-30T00:24:10;11.50;;;4.40;;
4867;SDS011;2448;48.086;10.862;2023-09-30T00:26:35;11.13;;;4.33;;
4867;SDS011;2448;48.086;10.862;2023-09-30T00:29:01;17.97;;;6.30;;
4867;SDS011;2448;48.086;10.862;2023-09-30T00:31:29;12.70;;;4.33;;
4867;SDS011;2448;48.086;10.862;2023-09-30T00:33:55;27.97;;;6.07;;
4867;SDS011;2448;48.086;10.862;2023-09-30T00:36:21;23.80;;;6.27;;
4867;SDS011;2448;48.086;10.862;2023-09-30T00:38:47;15.73;;;4.63;;
4867;SDS011;2448;48.086;10.862;2023-09-30T00:41:12;18.77;;;5.70;;
4867;SDS011;2448;48.086;10.862;2023-09-30T00:43:38;15.13;;;5.00;;
4867;SDS011;2448;48.086;10.862;2023-09-30T00:46:05;15.63;;;4.70;;
4867;SDS011;2448;48.086;10.862;2023-09-30T00:48:33;16.00;;;4.97;;
4867;SDS011;2448;48.086;10.862;2023-09-30T00:50:59;19.23;;;5.90;;
4867;SDS011;2448;48.086;10.862;2023-09-30T00:53:24;14.53;;;4.97;;
4867;SDS011;2448;48.086;10.862;2023-09-30T00:55:50;12.70;;;4.80;;
4867;SDS011;2448;48.086;10.862;2023-09-30T00:58:16;18.27;;;5.27;;
4867;SDS011;2448;48.086;10.862;2023-09-30T01:00:41;15.50;;;4.20;;
4867;SDS011;2448;48.086;10.862;2023-09-30T01:03:07;16.40;;;6.07;;
4867;SDS011;2448;48.086;10.862;2023-09-30T01:05:33;13.50;;;3.83;;
4867;SDS011;2448;48.086;10.862;2023-09-30T01:08:00;10.30;;;4.13;;
4867;SDS011;2448;48.086;10.862;2023-09-30T01:10:26;13.93;;;5.00;;
4867;SDS011;2448;48.086;10.862;2023-09-30T01:12:52;13.87;;;6.00;;
4867;SDS011;2448;48.086;10.862;2023-09-30T01:15:17;27.40;;;5.70;;
4867;SDS011;2448;48.086;10.862;2023-09-30T01:17:43;12.00;;;4.57;;
4867;SDS011;2448;48.086;10.862;2023-09-30T01:20:08;11.40;;;5.50;;
4867;SDS011;2448;48.086;10.862;2023-09-30T01:22:36;16.80;;;5.47;;
4867;SDS011;2448;48.086;10.862;2023-09-30T01:25:02;21.17;;;5.70;;
4867;SDS011;2448;48.086;10.862;2023-09-30T01:27:27;12.10;;;4.43;;
4867;SDS011;2448;48.086;10.862;2023-09-30T01:29:53;14.67;;;4.93;;
4867;SDS011;2448;48.086;10.862;2023-09-30T01:32:19;15.37;;;5.20;;
4867;SDS011;2448;48.086;10.862;2023-09-30T01:34:44;15.73;;;4.03;;
4867;SDS011;2448;48.086;10.862;2023-09-30T01:37:10;18.30;;;5.13;;
4867;SDS011;2448;48.086;10.862;2023-09-30T01:39:35;16.93;;;5.07;;
4867;SDS011;2448;48.086;10.862;2023-09-30T01:42:01;16.63;;;4.63;;
4867;SDS011;2448;48.086;10.862;2023-09-30T01:44:26;18.40;;;4.60;;
4867;SDS011;2448;48.086;10.862;2023-09-30T01:46:51;14.03;;;4.53;;
4867;SDS011;2448;48.086;10.862;2023-09-30T01:49:17;24.33;;;6.17;;
4867;SDS011;2448;48.086;10.862;2023-09-30T01:51:43;17.43;;;5.20;;
4867;SDS011;2448;48.086;10.862;2023-09-30T01:54:09;22.33;;;4.67;;
4867;SDS011;2448;48.086;10.862;2023-09-30T01:56:34;13.47;;;4.90;;
4867;SDS011;2448;48.086;10.862;2023-09-30T01:58:59;12.90;;;4.60;;
4867;SDS011;2448;48.086;10.862;2023-09-30T02:01:25;18.43;;;5.03;;
4867;SDS011;2448;48.086;10.862;2023-09-30T02:03:50;16.63;;;5.80;;
4867;SDS011;2448;48.086;10.862;2023-09-30T02:06:16;14.10;;;5.80;;
4867;SDS011;2448;48.086;10.862;2023-09-30T02:08:41;13.47;;;4.67;;
4867;SDS011;2448;48.086;10.862;2023-09-30T02:11:11;15.53;;;4.83;;
4867;SDS011;2448;48.086;10.862;2023-09-30T02:13:38;20.10;;;5.07;;
4867;SDS011;2448;48.086;10.862;2023-09-30T02:16:03;16.70;;;5.10;;
4867;SDS011;2448;48.086;10.862;2023-09-30T02:18:29;15.67;;;5.37;;
4867;SDS011;2448;48.086;10.862;2023-09-30T02:20:57;15.10;;;4.90;;
4867;SDS011;2448;48.086;10.862;2023-09-30T02:23:24;17.67;;;5.10;;
4867;SDS011;2448;48.086;10.862;2023-09-30T02:25:50;13.07;;;4.50;;
4867;SDS011;2448;48.086;10.862;2023-09-30T02:28:15;13.37;;;4.77;;
4867;SDS011;2448;48.086;10.862;2023-09-30T02:30:41;18.80;;;5.73;;
4867;SDS011;2448;48.086;10.862;2023-09-30T02:33:06;18.80;;;5.53;;
4867;SDS011;2448;48.086;10.862;2023-09-30T02:35:32;18.13;;;5.10;;
4867;SDS011;2448;48.086;10.862;2023-09-30T02:37:57;20.77;;;5.90;;
4867;SDS011;2448;48.086;10.862;2023-09-30T02:40:24;17.87;;;5.50;;
4867;SDS011;2448;48.086;10.862;2023-09-30T02:42:50;16.67;;;5.47;;
4867;SDS011;2448;48.086;10.862;2023-09-30T02:45:16;18.47;;;6.03;;
4867;SDS011;2448;48.086;10.862;2023-09-30T02:47:45;16.40;;;5.63;;
4867;SDS011;2448;48.086;10.862;2023-09-30T02:50:12;22.90;;;5.80;;
4867;SDS011;2448;48.086;10.862;2023-09-30T02:52:37;30.07;;;5.73;;
4867;SDS011;2448;48.086;10.862;2023-09-30T02:55:09;24.43;;;6.07;;
4867;SDS011;2448;48.086;10.862;2023-09-30T02:57:34;8.90;;;4.20;;
4867;SDS011;2448;48.086;10.862;2023-09-30T03:00:04;11.13;;;4.47;;
4867;SDS011;2448;48.086;10.862;2023-09-30T03:02:48;14.20;;;5.83;;
4867;SDS011;2448;48.086;10.862;2023-09-30T03:05:14;13.40;;;5.13;;
4867;SDS011;2448;48.086;10.862;2023-09-30T03:07:41;13.90;;;4.23;;
4867;SDS011;2448;48.086;10.862;2023-09-30T03:10:06;13.10;;;5.40;;
4867;SDS011;2448;48.086;10.862;2023-09-30T03:12:34;17.83;;;4.53;;
4867;SDS011;2448;48.086;10.862;2023-09-30T03:14:59;21.63;;;5.27;;
4867;SDS011;2448;48.086;10.862;2023-09-30T03:17:25;20.60;;;4.90;;
4867;SDS011;2448;48.086;10.862;2023-09-30T03:19:51;11.60;;;4.60;;
4867;SDS011;2448;48.086;10.862;2023-09-30T03:22:16;11.87;;;4.93;;
4867;SDS011;2448;48.086;10.862;2023-09-30T03:24:41;12.10;;;4.50;;
4867;SDS011;2448;48.086;10.862;2023-09-30T03:27:07;15.50;;;5.57;;
4867;SDS011;2448;48.086;10.862;2023-09-30T03:29:35;9.27;;;3.57;;
4867;SDS011;2448;48.086;10.862;2023-09-30T03:32:00;11.77;;;4.90;;
4867;SDS011;2448;48.086;10.862;2023-09-30T03:34:25;12.20;;;4.47;;
4867;SDS011;2448;48.086;10.862;2023-09-30T03:36:51;9.23;;;4.53;;
4867;SDS011;2448;48.086;10.862;2023-09-30T03:39:20;8.03;;;3.83;;
4867;SDS011;2448;48.086;10.862;2023-09-30T03:41:52;15.37;;;4.40;;
4867;SDS011;2448;48.086;10.862;2023-09-30T03:44:19;10.87;;;4.13;;
4867;SDS011;2448;48.086;10.862;2023-09-30T03:46:44;24.17;;;4.67;;
4867;SDS011;2448;48.086;10.862;2023-09-30T03:49:10;21.13;;;4.20;;
4867;SDS011;2448;48.086;10.862;2023-09-30T03:51:35;11.63;;;5.10;;
4867;SDS011;2448;48.086;10.862;2023-09-30T03:54:02;16.57;;;3.60;;
4867;SDS011;2448;48.086;10.862;2023-09-30T03:56:28;11.10;;;4.17;;
4867;SDS011;2448;48.086;10.862;2023-09-30T03:58:53;17.10;;;6.23;;
4867;SDS011;2448;48.086;10.862;2023-09-30T04:01:18;19.77;;;4.53;;
4867;SDS011;2448;48.086;10.862;2023-09-30T04:03:44;12.70;;;4.20;;
4867;SDS011;2448;48.086;10.862;2023-09-30T04:06:10;9.63;;;4.30;;
4867;SDS011;2448;48.086;10.862;2023-09-30T04:08:36;11.73;;;4.23;;
4867;SDS011;2448;48.086;10.862;2023-09-30T04:11:02;10.50;;;3.50;;
4867;SDS011;2448;48.086;10.862;2023-09-30T04:13:30;14.70;;;4.13;;
4867;SDS011;2448;48.086;10.862;2023-09-30T04:15:56;14.60;;;4.60;;
4867;SDS011;2448;48.086;10.862;2023-09-30T04:18:23;12.87;;;5.07;;
4867;SDS011;2448;48.086;10.862;2023-09-30T04:20:53;13.53;;;4.07;;
4867;SDS011;2448;48.086;10.862;2023-09-30T04:23:19;16.13;;;4.17;;
4867;SDS011;2448;48.086;10.862;2023-09-30T04:25:45;6.43;;;3.17;;
4867;SDS011;2448;48.086;10.862;2023-09-30T04:28:12;14.73;;;4.53;;
4867;SDS011;2448;48.086;10.862;2023-09-30T04:30:37;8.97;;;3.77;;
4867;SDS011;2448;48.086;10.862;2023-09-30T04:33:03;10.57;;;3.30;;
4867;SDS011;2448;48.086;10.862;2023-09-30T04:35:31;17.70;;;4.63;;
4867;SDS011;2448;48.086;10.862;2023-09-30T04:37:56;7.70;;;3.03;;
4867;SDS011;2448;48.086;10.862;2023-09-30T04:40:26;12.73;;;3.70;;
4867;SDS011;2448;48.086;10.862;2023-09-30T04:42:51;10.33;;;4.23;;
4867;SDS011;2448;48.086;10.862;2023-09-30T04:45:19;12.27;;;4.70;;
4867;SDS011;2448;48.086;10.862;2023-09-30T04:47:45;6.97;;;3.20;;
4867;SDS011;2448;48.086;10.862;2023-09-30T04:50:10;9.77;;;4.10;;
4867;SDS011;2448;48.086;10.862;2023-09-30T04:52:37;10.07;;;3.80;;
4867;SDS011;2448;48.086;10.862;2023-09-30T04:55:02;12.70;;;3.43;;
4867;SDS011;2448;48.086;10.862;2023-09-30T04:57:29;11.00;;;3.87;;
4867;SDS011;2448;48.086;10.862;2023-09-30T04:59:55;10.03;;;3.80;;
4867;SDS011;2448;48.086;10.862;2023-09-30T05:02:20;9.10;;;3.67;;
4867;SDS011;2448;48.086;10.862;2023-09-30T05:04:46;6.90;;;3.17;;
4867;SDS011;2448;48.086;10.862;2023-09-30T05:07:11;10.50;;;3.63;;
4867;SDS011;2448;48.086;10.862;2023-09-30T05:09:38;19.20;;;3.97;;
4867;SDS011;2448;48.086;10.862;2023-09-30T05:12:04;14.17;;;3.10;;
4867;SDS011;2448;48.086;10.862;2023-09-30T05:14:29;9.90;;;3.50;;
4867;SDS011;2448;48.086;10.862;2023-09-30T05:16:54;13.07;;;4.23;;
4867;SDS011;2448;48.086;10.862;2023-09-30T05:19:21;11.83;;;4.03;;
4867;SDS011;2448;48.086;10.862;2023-09-30T05:21:47;8.70;;;4.10;;
4867;SDS011;2448;48.086;10.862;2023-09-30T05:24:12;10.70;;;3.20;;
4867;SDS011;2448;48.086;10.862;2023-09-30T05:26:38;15.00;;;4.03;;
4867;SDS011;2448;48.086;10.862;2023-09-30T05:29:03;9.33;;;3.80;;
4867;SDS011;2448;48.086;10.862;2023-09-30T05:31:29;7.80;;;3.37;;
4867;SDS011;2448;48.086;10.862;2023-09-30T05:33:54;9.33;;;4.30;;
4867;SDS011;2448;48.086;10.862;2023-09-30T05:36:20;8.57;;;3.57;;
4867;SDS011;2448;48.086;10.862;2023-09-30T05:38:46;14.30;;;4.90;;
4867;SDS011;2448;48.086;10.862;2023-09-30T05:41:14;10.37;;;3.73;;
4867;SDS011;2448;48.086;10.862;2023-09-30T05:43:39;12.40;;;4.07;;
4867;SDS011;2448;48.086;10.862;2023-09-30T05:46:05;7.53;;;4.23;;
4867;SDS011;2448;48.086;10.862;2023-09-30T05:48:31;12.50;;;3.70;;
4867;SDS011;2448;48.086;10.862;2023-09-30T05:50:56;12.03;;;4.17;;
4867;SDS011;2448;48.086;10.862;2023-09-30T05:53:22;15.47;;;5.27;;
4867;SDS011;2448;48.086;10.862;2023-09-30T05:55:47;9.63;;;3.63;;
4867;SDS011;2448;48.086;10.862;2023-09-30T05:58:14;8.90;;;4.30;;
4867;SDS011;2448;48.086;10.862;2023-09-30T06:00:41;8.10;;;3.40;;
4867;SDS011;2448;48.086;10.862;2023-09-30T06:03:07;8.53;;;4.30;;
4867;SDS011;2448;48.086;10.862;2023-09-30T06:05:33;10.23;;;4.00;;
4867;SDS011;2448;48.086;10.862;2023-09-30T06:07:59;9.50;;;3.03;;
4867;SDS011;2448;48.086;10.862;2023-09-30T06:10:25;10.77;;;3.30;;
4867;SDS011;2448;48.086;10.862;2023-09-30T06:12:52;13.43;;;3.67;;
4867;SDS011;2448;48.086;10.862;2023-09-30T06:15:21;15.23;;;3.63;;
4867;SDS011;2448;48.086;10.862;2023-09-30T06:17:47;11.73;;;3.17;;
4867;SDS011;2448;48.086;10.862;2023-09-30T06:20:12;11.27;;;3.20;;
4867;SDS011;2448;48.086;10.862;2023-09-30T06:22:42;9.57;;;2.90;;
4867;SDS011;2448;48.086;10.862;2023-09-30T06:25:08;21.73;;;5.87;;
4867;SDS011;2448;48.086;10.862;2023-09-30T06:27:33;5.73;;;2.83;;
4867;SDS011;2448;48.086;10.862;2023-09-30T06:29:58;12.03;;;3.40;;
4867;SDS011;2448;48.086;10.862;2023-09-30T06:32:24;6.37;;;2.60;;
4867;SDS011;2448;48.086;10.862;2023-09-30T06:34:49;17.93;;;3.43;;
4867;SDS011;2448;48.086;10.862;2023-09-30T06:37:15;6.53;;;3.23;;
4867;SDS011;2448;48.086;10.862;2023-09-30T06:39:40;11.10;;;3.40;;
4867;SDS011;2448;48.086;10.862;2023-09-30T06:42:06;10.83;;;3.23;;
4867;SDS011;2448;48.086;10.862;2023-09-30T06:44:32;9.63;;;3.80;;
4867;SDS011;2448;48.086;10.862;2023-09-30T06:46:58;9.30;;;2.93;;
4867;SDS011;2448;48.086;10.862;2023-09-30T06:49:23;10.03;;;3.80;;
4867;SDS011;2448;48.086;10.862;2023-09-30T06:51:49;10.33;;;2.80;;
4867;SDS011;2448;48.086;10.862;2023-09-30T06:54:14;6.30;;;2.87;;
4867;SDS011;2448;48.086;10.862;2023-09-30T06:56:40;8.80;;;3.03;;
4867;SDS011;2448;48.086;10.862;2023-09-30T06:59:06;9.43;;;4.00;;
4867;SDS011;2448;48.086;10.862;2023-09-30T07:01:31;11.57;;;3.27;;
4867;SDS011;2448;48.086;10.862;2023-09-30T07:03:57;10.83;;;2.77;;
4867;SDS011;2448;48.086;10.862;2023-09-30T07:06:23;11.33;;;4.13;;
4867;SDS011;2448;48.086;10.862;2023-09-30T07:08:49;6.20;;;3.40;;
4867;SDS011;2448;48.086;10.862;2023-09-30T07:11:14;12.07;;;3.30;;
4867;SDS011;2448;48.086;10.862;2023-09-30T07:13:39;9.97;;;3.33;;
4867;SDS011;2448;48.086;10.862;2023-09-30T07:16:05;7.13;;;2.97;;
4867;SDS011;2448;48.086;10.862;2023-09-30T07:18:31;9.03;;;2.83;;
4867;SDS011;2448;48.086;10.862;2023-09-30T07:20:56;8.30;;;3.50;;
4867;SDS011;2448;48.086;10.862;2023-09-30T07:23:21;9.33;;;2.50;;
4867;SDS011;2448;48.086;10.862;2023-09-30T07:25:47;11.07;;;3.67;;
4867;SDS011;2448;48.086;10.862;2023-09-30T07:28:13;8.73;;;3.57;;
4867;SDS011;2448;48.086;10.862;2023-09-30T07:30:38;10.03;;;3.20;;
4867;SDS011;2448;48.086;10.862;2023-09-30T07:33:04;8.33;;;2.93;;
4867;SDS011;2448;48.086;10.862;2023-09-30T07:35:30;6.63;;;2.53;;
4867;SDS011;2448;48.086;10.862;2023-09-30T07:37:55;5.20;;;2.90;;
4867;SDS011;2448;48.086;10.862;2023-09-30T07:40:21;6.87;;;3.03;;
4867;SDS011;2448;48.086;10.862;2023-09-30T07:42:46;11.33;;;3.53;;
4867;SDS011;2448;48.086;10.862;2023-09-30T07:45:12;5.90;;;2.83;;
4867;SDS011;2448;48.086;10.862;2023-09-30T07:47:43;5.00;;;2.43;;
4867;SDS011;2448;48.086;10.862;2023-09-30T07:50:08;8.40;;;3.70;;
4867;SDS011;2448;48.086;10.862;2023-09-30T07:52:35;10.47;;;2.90;;
4867;SDS011;2448;48.086;10.862;2023-09-30T07:55:01;9.53;;;3.73;;
4867;SDS011;2448;48.086;10.862;2023-09-30T07:57:26;10.70;;;3.33;;
4867;SDS011;2448;48.086;10.862;2023-09-30T07:59:51;10.60;;;3.37;;
4867;SDS011;2448;48.086;10.862;2023-09-30T08:02:17;6.77;;;2.87;;
4867;SDS011;2448;48.086;10.862;2023-09-30T08:04:43;11.77;;;3.40;;
4867;SDS011;2448;48.086;10.862;2023-09-30T08:07:08;15.93;;;3.37;;
4867;SDS011;2448;48.086;10.862;2023-09-30T08:09:34;7.27;;;3.10;;
4867;SDS011;2448;48.086;10.862;2023-09-30T08:12:00;11.90;;;3.07;;
4867;SDS011;2448;48.086;10.862;2023-09-30T08:14:25;8.93;;;3.60;;
4867;SDS011;2448;48.086;10.862;2023-09-30T08:16:51;9.57;;;3.13;;
4867;SDS011;2448;48.086;10.862;2023-09-30T08:19:16;5.93;;;2.90;;
4867;SDS011;2448;48.086;10.862;2023-09-30T08:21:42;8.37;;;3.30;;
4867;SDS011;2448;48.086;10.862;2023-09-30T08:24:07;9.13;;;3.23;;
4867;SDS011;2448;48.086;10.862;2023-09-30T08:26:33;9.90;;;3.70;;
4867;SDS011;2448;48.086;10.862;2023-09-30T08:29:00;9.27;;;2.80;;
4867;SDS011;2448;48.086;10.862;2023-09-30T08:31:26;10.37;;;3.53;;
4867;SDS011;2448;48.086;10.862;2023-09-30T08:33:51;6.97;;;3.00;;
4867;SDS011;2448;48.086;10.862;2023-09-30T08:36:16;10.13;;;2.93;;
4867;SDS011;2448;48.086;10.862;2023-09-30T08:38:42;11.93;;;2.90;;
4867;SDS011;2448;48.086;10.862;2023-09-30T08:41:07;4.53;;;2.50;;
4867;SDS011;2448;48.086;10.862;2023-09-30T08:43:39;4.50;;;2.13;;
4867;SDS011;2448;48.086;10.862;2023-09-30T08:46:05;9.27;;;2.30;;
4867;SDS011;2448;48.086;10.862;2023-09-30T08:48:34;5.23;;;2.50;;
4867;SDS011;2448;48.086;10.862;2023-09-30T08:51:00;5.87;;;2.43;;
4867;SDS011;2448;48.086;10.862;2023-09-30T08:53:26;10.53;;;2.07;;
4867;SDS011;2448;48.086;10.862;2023-09-30T08:55:53;3.97;;;1.93;;
4867;SDS011;2448;48.086;10.862;2023-09-30T08:58:19;7.57;;;2.93;;
4867;SDS011;2448;48.086;10.862;2023-09-30T09:00:46;4.07;;;2.03;;
4867;SDS011;2448;48.086;10.862;2023-09-30T09:03:12;4.13;;;2.60;;
4867;SDS011;2448;48.086;10.862;2023-09-30T09:05:38;4.53;;;2.93;;
4867;SDS011;2448;48.086;10.862;2023-09-30T09:08:03;3.87;;;2.63;;
4867;SDS011;2448;48.086;10.862;2023-09-30T09:10:29;5.33;;;2.20;;
4867;SDS011;2448;48.086;10.862;2023-09-30T09:12:57;4.60;;;2.50;;
4867;SDS011;2448;48.086;10.862;2023-09-30T09:15:24;9.10;;;3.60;;
4867;SDS011;2448;48.086;10.862;2023-09-30T09:17:50;6.57;;;2.70;;
4867;SDS011;2448;48.086;10.862;2023-09-30T09:20:18;4.30;;;2.30;;
4867;SDS011;2448;48.086;10.862;2023-09-30T09:22:45;7.30;;;2.57;;
4867;SDS011;2448;48.086;10.862;2023-09-30T09:25:12;6.80;;;3.40;;
4867;SDS011;2448;48.086;10.862;2023-09-30T09:27:37;11.50;;;2.90;;
4867;SDS011;2448;48.086;10.862;2023-09-30T09:30:16;8.40;;;2.30;;
4867;SDS011;2448;48.086;10.862;2023-09-30T09:35:20;7.43;;;3.10;;
4867;SDS011;2448;48.086;10.862;2023-09-30T09:37:55;5.00;;;2.57;;
4867;SDS011;2448;48.086;10.862;2023-09-30T09:40:25;7.53;;;2.80;;
4867;SDS011;2448;48.086;10.862;2023-09-30T09:42:51;5.77;;;2.77;;
4867;SDS011;2448;48.086;10.862;2023-09-30T09:45:19;9.80;;;3.30;;
4867;SDS011;2448;48.086;10.862;2023-09-30T09:47:45;12.53;;;3.03;;
4867;SDS011;2448;48.086;10.862;2023-09-30T09:50:11;5.67;;;3.47;;
4867;SDS011;2448;48.086;10.862;2023-09-30T09:52:38;8.70;;;3.03;;
4867;SDS011;2448;48.086;10.862;2023-09-30T09:55:04;8.33;;;2.57;;
4867;SDS011;2448;48.086;10.862;2023-09-30T09:57:31;6.40;;;2.73;;
4867;SDS011;2448;48.086;10.862;2023-09-30T09:59:57;8.90;;;3.70;;
4867;SDS011;2448;48.086;10.862;2023-09-30T10:02:23;7.87;;;3.10;;
4867;SDS011;2448;48.086;10.862;2023-09-30T10:04:49;5.40;;;2.90;;
4867;SDS011;2448;48.086;10.862;2023-09-30T10:10:09;19.43;;;3.97;;
4867;SDS011;2448;48.086;10.862;2023-09-30T10:12:38;8.27;;;3.33;;
4867;SDS011;2448;48.086;10.862;2023-09-30T10:17:58;8.30;;;3.20;;
4867;SDS011;2448;48.086;10.862;2023-09-30T10:20:28;8.30;;;3.10;;
4867;SDS011;2448;48.086;10.862;2023-09-30T10:26:13;10.90;;;3.27;;
4867;SDS011;2448;48.086;10.862;2023-09-30T10:31:09;12.17;;;3.70;;
4867;SDS011;2448;48.086;10.862;2023-09-30T10:34:02;6.80;;;3.20;;
4867;SDS011;2448;48.086;10.862;2023-09-30T10:36:29;11.23;;;4.50;;
4867;SDS011;2448;48.086;10.862;2023-09-30T10:38:55;14.63;;;3.40;;
4867;SDS011;2448;48.086;10.862;2023-09-30T10:46:48;9.67;;;3.83;;
4867;SDS011;2448;48.086;10.862;2023-09-30T10:49:14;6.67;;;3.33;;
4867;SDS011;2448;48.086;10.862;2023-09-30T10:51:40;6.30;;;3.00;;
4867;SDS011;2448;48.086;10.862;2023-09-30T10:54:06;10.87;;;4.00;;
4867;SDS011;2448;48.086;10.862;2023-09-30T10:56:32;9.20;;;3.43;;
4867;SDS011;2448;48.086;10.862;2023-09-30T10:58:57;12.87;;;4.27;;
4867;SDS011;2448;48.086;10.862;2023-09-30T11:01:24;16.63;;;4.67;;
4867;SDS011;2448;48.086;10.862;2023-09-30T11:03:50;9.40;;;3.17;;
4867;SDS011;2448;48.086;10.862;2023-09-30T11:06:23;16.00;;;3.73;;
4867;SDS011;2448;48.086;10.862;2023-09-30T11:08:52;7.13;;;2.57;;
4867;SDS011;2448;48.086;10.862;2023-09-30T11:11:19;9.67;;;3.27;;
4867;SDS011;2448;48.086;10.862;2023-09-30T11:13:44;11.33;;;3.83;;
4867;SDS011;2448;48.086;10.862;2023-09-30T11:16:10;12.23;;;3.80;;
4867;SDS011;2448;48.086;10.862;2023-09-30T11:18:36;8.53;;;3.90;;
4867;SDS011;2448;48.086;10.862;2023-09-30T11:21:03;14.67;;;3.63;;
4867;SDS011;2448;48.086;10.862;2023-09-30T11:23:29;10.63;;;3.77;;
4867;SDS011;2448;48.086;10.862;2023-09-30T11:25:55;14.30;;;3.23;;
4867;SDS011;2448;48.086;10.862;2023-09-30T11:28:21;8.73;;;3.07;;
4867;SDS011;2448;48.086;10.862;2023-09-30T11:30:57;4.50;;;2.70;;
4867;SDS011;2448;48.086;10.862;2023-09-30T11:33:22;12.90;;;3.33;;
4867;SDS011;2448;48.086;10.862;2023-09-30T11:36:06;13.20;;;3.60;;
4867;SDS011;2448;48.086;10.862;2023-09-30T11:38:32;23.60;;;4.23;;
4867;SDS011;2448;48.086;10.862;2023-09-30T11:41:07;8.80;;;3.83;;
4867;SDS011;2448;48.086;10.862;2023-09-30T11:43:33;17.33;;;3.90;;
4867;SDS011;2448;48.086;10.862;2023-09-30T11:46:05;15.67;;;4.67;;
4867;SDS011;2448;48.086;10.862;2023-09-30T11:48:31;13.60;;;4.30;;
4867;SDS011;2448;48.086;10.862;2023-09-30T11:50:58;7.40;;;3.33;;
4867;SDS011;2448;48.086;10.862;2023-09-30T11:53:25;9.50;;;3.27;;
4867;SDS011;2448;48.086;10.862;2023-09-30T11:55:51;10.50;;;3.13;;
4867;SDS011;2448;48.086;10.862;2023-09-30T11:58:19;8.57;;;3.03;;
4867;SDS011;2448;48.086;10.862;2023-09-30T12:00:45;6.50;;;3.13;;
4867;SDS011;2448;48.086;10.862;2023-09-30T12:03:10;9.83;;;3.10;;
4867;SDS011;2448;48.086;10.862;2023-09-30T12:05:36;10.60;;;3.47;;
4867;SDS011;2448;48.086;10.862;2023-09-30T12:08:02;7.20;;;3.40;;
4867;SDS011;2448;48.086;10.862;2023-09-30T12:10:27;9.30;;;3.40;;
4867;SDS011;2448;48.086;10.862;2023-09-30T12:12:53;13.73;;;2.93;;
4867;SDS011;2448;48.086;10.862;2023-09-30T12:15:18;11.70;;;3.70;;
4867;SDS011;2448;48.086;10.862;2023-09-30T12:17:47;10.93;;;3.77;;
4867;SDS011;2448;48.086;10.862;2023-09-30T12:20:12;9.13;;;2.77;;
4867;SDS011;2448;48.086;10.862;2023-09-30T12:22:40;15.83;;;3.57;;
4867;SDS011;2448;48.086;10.862;2023-09-30T12:25:06;11.20;;;4.10;;
4867;SDS011;2448;48.086;10.862;2023-09-30T12:27:33;10.23;;;3.20;;
4867;SDS011;2448;48.086;10.862;2023-09-30T12:29:59;11.07;;;3.63;;
4867;SDS011;2448;48.086;10.862;2023-09-30T12:32:25;7.10;;;3.63;;
4867;SDS011;2448;48.086;10.862;2023-09-30T12:34:52;12.47;;;3.93;;
4867;SDS011;2448;48.086;10.862;2023-09-30T12:37:18;8.30;;;3.17;;
4867;SDS011;2448;48.086;10.862;2023-09-30T12:39:43;14.50;;;3.10;;
4867;SDS011;2448;48.086;10.862;2023-09-30T12:42:10;10.83;;;3.50;;
4867;SDS011;2448;48.086;10.862;2023-09-30T12:44:37;11.60;;;3.93;;
4867;SDS011;2448;48.086;10.862;2023-09-30T12:47:04;9.20;;;3.30;;
4867;SDS011;2448;48.086;10.862;2023-09-30T12:49:30;10.17;;;3.53;;
4867;SDS011;2448;48.086;10.862;2023-09-30T12:51:55;12.73;;;3.60;;
4867;SDS011;2448;48.086;10.862;2023-09-30T12:54:22;12.13;;;4.10;;
4867;SDS011;2448;48.086;10.862;2023-09-30T12:56:48;8.73;;;3.43;;
4867;SDS011;2448;48.086;10.862;2023-09-30T12:59:15;8.23;;;3.17;;
4867;SDS011;2448;48.086;10.862;2023-09-30T13:01:41;11.43;;;4.00;;
4867;SDS011;2448;48.086;10.862;2023-09-30T13:04:07;7.77;;;3.60;;
4867;SDS011;2448;48.086;10.862;2023-09-30T13:06:33;17.43;;;4.37;;
4867;SDS011;2448;48.086;10.862;2023-09-30T13:09:00;5.67;;;2.80;;
4867;SDS011;2448;48.086;10.862;2023-09-30T13:11:26;10.50;;;3.90;;
4867;SDS011;2448;48.086;10.862;2023-09-30T13:13:51;8.27;;;3.60;;
4867;SDS011;2448;48.086;10.862;2023-09-30T13:16:17;13.17;;;4.27;;
4867;SDS011;2448;48.086;10.862;2023-09-30T13:18:42;13.60;;;4.77;;
4867;SDS011;2448;48.086;10.862;2023-09-30T13:21:08;14.33;;;3.70;;
4867;SDS011;2448;48.086;10.862;2023-09-30T13:23:34;10.10;;;3.87;;
4867;SDS011;2448;48.086;10.862;2023-09-30T13:26:01;3.90;;;2.63;;
4867;SDS011;2448;48.086;10.862;2023-09-30T13:28:26;6.40;;;2.60;;
4867;SDS011;2448;48.086;10.862;2023-09-30T13:30:53;7.57;;;3.70;;
4867;SDS011;2448;48.086;10.862;2023-09-30T13:33:18;9.70;;;3.47;;
4867;SDS011;2448;48.086;10.862;2023-09-30T13:35:46;10.57;;;3.93;;
4867;SDS011;2448;48.086;10.862;2023-09-30T13:38:11;11.03;;;4.13;;
4867;SDS011;2448;48.086;10.862;2023-09-30T13:40:36;15.87;;;3.40;;
4867;SDS011;2448;48.086;10.862;2023-09-30T13:43:03;6.10;;;3.80;;
4867;SDS011;2448;48.086;10.862;2023-09-30T13:45:29;11.63;;;3.50;;
4867;SDS011;2448;48.086;10.862;2023-09-30T13:47:54;16.07;;;3.97;;
4867;SDS011;2448;48.086;10.862;2023-09-30T13:50:19;10.80;;;4.23;;
4867;SDS011;2448;48.086;10.862;2023-09-30T13:52:45;8.93;;;4.13;;
4867;SDS011;2448;48.086;10.862;2023-09-30T13:55:10;7.97;;;3.30;;
4867;SDS011;2448;48.086;10.862;2023-09-30T13:57:36;7.80;;;3.57;;
4867;SDS011;2448;48.086;10.862;2023-09-30T14:00:02;7.40;;;3.60;;
4867;SDS011;2448;48.086;10.862;2023-09-30T14:02:30;6.77;;;3.40;;
4867;SDS011;2448;48.086;10.862;2023-09-30T14:04:55;7.03;;;3.40;;
4867;SDS011;2448;48.086;10.862;2023-09-30T14:07:20;11.00;;;3.50;;
4867;SDS011;2448;48.086;10.862;2023-09-30T14:09:46;9.77;;;4.13;;
4867;SDS011;2448;48.086;10.862;2023-09-30T14:12:12;10.00;;;3.63;;
4867;SDS011;2448;48.086;10.862;2023-09-30T14:14:38;6.00;;;3.30;;
4867;SDS011;2448;48.086;10.862;2023-09-30T14:17:03;13.30;;;4.00;;
4867;SDS011;2448;48.086;10.862;2023-09-30T14:19:40;14.20;;;4.47;;
4867;SDS011;2448;48.086;10.862;2023-09-30T14:22:06;16.57;;;4.50;;
4867;SDS011;2448;48.086;10.862;2023-09-30T14:24:33;10.10;;;3.80;;
4867;SDS011;2448;48.086;10.862;2023-09-30T14:26:58;16.10;;;3.73;;
4867;SDS011;2448;48.086;10.862;2023-09-30T14:29:24;10.90;;;3.97;;
4867;SDS011;2448;48.086;10.862;2023-09-30T14:31:50;11.43;;;4.43;;
4867;SDS011;2448;48.086;10.862;2023-09-30T14:34:15;7.97;;;3.20;;
4867;SDS011;2448;48.086;10.862;2023-09-30T14:36:40;7.00;;;2.90;;
4867;SDS011;2448;48.086;10.862;2023-09-30T14:39:06;15.90;;;4.80;;
4867;SDS011;2448;48.086;10.862;2023-09-30T14:41:31;15.90;;;3.93;;
4867;SDS011;2448;48.086;10.862;2023-09-30T14:43:58;7.60;;;3.47;;
4867;SDS011;2448;48.086;10.862;2023-09-30T14:46:23;10.13;;;3.83;;
4867;SDS011;2448;48.086;10.862;2023-09-30T14:48:49;14.40;;;3.67;;
4867;SDS011;2448;48.086;10.862;2023-09-30T14:51:15;16.07;;;3.97;;
4867;SDS011;2448;48.086;10.862;2023-09-30T14:53:40;9.83;;;4.27;;
4867;SDS011;2448;48.086;10.862;2023-09-30T14:56:14;7.63;;;3.73;;
4867;SDS011;2448;48.086;10.862;2023-09-30T14:58:39;5.20;;;3.07;;
4867;SDS011;2448;48.086;10.862;2023-09-30T15:01:07;7.87;;;3.37;;
4867;SDS011;2448;48.086;10.862;2023-09-30T15:03:33;9.00;;;3.90;;
4867;SDS011;2448;48.086;10.862;2023-09-30T15:06:01;18.93;;;3.87;;
4867;SDS011;2448;48.086;10.862;2023-09-30T15:08:27;10.53;;;3.43;;